Time;durP1;ratioP1;P1;durP2;ratioP2;P2;SDS_P1;SDS_P2;PMS_P1;PMS_P2;Temp;Humidity;BMP_temperature;BMP_pressure;BME280_temperature;BME280_humidity;BME280_pressure;Samples;Min_cycle;Max_cycle;Signal;HPM_P1;HPM_P2
2021/12/26 00:01:20;;;;;;;137.88;50.08;;;;;;;-9.71;66.98;96878.63;1799736;79;27283;-81
2021/12/26 00:03:46;;;;;;;149.18;48.65;;;;;;;-9.80;66.95;96883.98;1791030;78;25820;-82
2021/12/26 00:06:18;;;;;;;144.90;49.90;;;;;;;-9.90;66.88;96874.58;1725470;81;25814;-82
2021/12/26 00:08:47;;;;;;;135.43;49.33;;;;;;;-9.94;66.92;96875.73;1722939;82;25886;-81
2021/12/26 00:11:14;;;;;;;126.87;48.48;;;;;;;-9.97;66.98;96879.84;1722798;82;26396;-81
2021/12/26 00:13:42;;;;;;;116.47;46.70;;;;;;;-10.00;66.96;96872.20;1722787;82;28451;-81
2021/12/26 00:16:09;;;;;;;143.13;52.58;;;;;;;-10.02;66.96;96875.37;1718565;82;25724;-81
2021/12/26 00:18:41;;;;;;;137.90;52.58;;;;;;;-10.09;66.85;96872.80;1746926;81;25788;-82
2021/12/26 00:21:06;;;;;;;132.22;53.40;;;;;;;-10.10;66.97;96880.25;1742085;81;26729;-82
2021/12/26 00:23:32;;;;;;;131.07;53.70;;;;;;;-10.12;66.98;96875.59;1742420;81;25834;-81
2021/12/26 00:25:59;;;;;;;132.05;53.90;;;;;;;-10.15;66.95;96885.41;1742148;82;28166;-81
2021/12/26 00:28:27;;;;;;;142.00;59.42;;;;;;;-10.22;67.03;96886.28;1716580;82;25755;-82
2021/12/26 00:30:53;;;;;;;159.93;57.58;;;;;;;-10.27;66.90;96894.89;1705821;83;25818;-81
2021/12/26 00:33:20;;;;;;;148.45;55.35;;;;;;;-10.33;66.82;96901.78;1716650;82;25772;-81
2021/12/26 00:35:47;;;;;;;152.50;55.90;;;;;;;-10.41;66.76;96894.45;1713081;82;25729;-81
2021/12/26 00:38:16;;;;;;;119.00;45.73;;;;;;;-10.45;66.77;96899.94;1708355;82;27579;-81
2021/12/26 00:40:45;;;;;;;109.07;44.93;;;;;;;-10.50;66.89;96903.31;1708372;83;26499;-81
2021/12/26 00:43:13;;;;;;;122.40;43.80;;;;;;;-10.56;66.78;96903.22;1708394;83;25783;-81
2021/12/26 00:45:40;;;;;;;131.67;47.40;;;;;;;-10.64;66.82;96906.30;1710908;82;25764;-81
2021/12/26 00:48:07;;;;;;;114.10;41.48;;;;;;;-10.66;66.85;96912.08;1730298;81;25893;-81
2021/12/26 00:50:37;;;;;;;122.00;45.55;;;;;;;-10.67;66.83;96910.86;1737918;81;28255;-82
2021/12/26 00:53:04;;;;;;;123.25;43.87;;;;;;;-10.71;66.86;96907.59;1737896;81;26360;-81
2021/12/26 00:55:32;;;;;;;135.63;45.50;;;;;;;-10.72;66.96;96916.34;1733884;81;25723;-81
2021/12/26 00:57:59;;;;;;;123.38;43.85;;;;;;;-10.74;66.87;96903.86;1737898;81;25700;-81
2021/12/26 01:00:31;;;;;;;115.12;42.33;;;;;;;-10.79;66.87;96900.72;1737946;81;25751;-81
2021/12/26 01:03:00;;;;;;;;;;;;;;;-10.81;66.84;96910.39;1740794;81;28257;-81
2021/12/26 01:05:28;;;;;;;114.20;43.85;;;;;;;-10.86;66.76;96901.16;1702641;82;25743;-81
2021/12/26 01:08:03;;;;;;;108.95;42.70;;;;;;;-10.90;66.91;96896.63;1701681;82;25532;-81
2021/12/26 01:10:40;;;;;;;108.83;41.63;;;;;;;-10.90;67.09;96894.48;1710146;81;25906;-81
2021/12/26 01:13:25;;;;;;;118.87;44.73;;;;;;;-10.92;67.08;96890.19;1704062;83;25674;-81
2021/12/26 01:15:48;;;;;;;119.10;45.05;;;;;;;-10.95;66.98;96894.74;1706024;82;27399;-82
2021/12/26 01:18:16;;;;;;;116.37;46.88;;;;;;;-11.00;66.88;96885.08;1718432;82;25884;-81
2021/12/26 01:20:52;;;;;;;116.80;47.48;;;;;;;-11.05;66.93;96887.11;1729121;81;25707;-81
2021/12/26 01:23:16;;;;;;;103.42;40.17;;;;;;;-11.10;66.89;96887.38;1731686;82;25736;-81
2021/12/26 01:25:44;;;;;;;139.75;51.20;;;;;;;-11.16;66.88;96889.52;1730674;81;25742;-81
2021/12/26 01:28:11;;;;;;;120.42;48.85;;;;;;;-11.19;66.91;96893.14;1695019;82;26993;-81
2021/12/26 01:30:39;;;;;;;127.53;48.10;;;;;;;-11.22;66.96;96889.41;1703140;83;25806;-81
2021/12/26 01:33:11;;;;;;;108.95;44.73;;;;;;;-11.23;66.96;96891.66;1788378;79;25892;-81
2021/12/26 01:35:38;;;;;;;122.17;44.15;;;;;;;-11.29;66.92;96890.25;1794246;79;26609;-81
2021/12/26 01:38:09;;;;;;;137.82;47.67;;;;;;;-11.35;66.92;96890.59;1790198;79;25775;-81
2021/12/26 01:40:38;;;;;;;128.53;42.85;;;;;;;-11.40;66.96;96879.62;1794397;79;27434;-81
2021/12/26 01:43:04;;;;;;;112.50;39.50;;;;;;;-11.45;66.90;96881.65;1789895;79;25869;-81
2021/12/26 01:45:31;;;;;;;99.77;40.00;;;;;;;-11.48;66.82;96887.52;1794466;79;25826;-81
2021/12/26 01:47:59;;;;;;;110.60;40.38;;;;;;;-11.50;66.97;96877.19;1790325;79;26556;-82
2021/12/26 01:50:28;;;;;;;110.68;42.58;;;;;;;-11.50;67.08;96874.59;1782526;79;25825;-81
2021/12/26 01:52:54;;;;;;;119.42;43.38;;;;;;;-11.47;67.12;96870.48;1754604;79;27372;-80
2021/12/26 01:55:25;;;;;;;112.77;42.67;;;;;;;-11.48;67.12;96864.92;1794705;79;26516;-81
2021/12/26 01:57:53;;;;;;;105.37;43.23;;;;;;;-11.49;67.11;96871.05;1794385;79;25761;-81
2021/12/26 02:00:23;;;;;;;106.67;41.28;;;;;;;-11.50;67.12;96871.14;1794647;79;26441;-81
2021/12/26 02:02:49;;;;;;;97.37;40.35;;;;;;;-11.51;67.15;96872.06;1794703;79;25647;-81
2021/12/26 02:05:17;;;;;;;91.02;38.10;;;;;;;-11.56;67.16;96865.81;1794689;79;27530;-81
2021/12/26 02:07:44;;;;;;;88.42;37.23;;;;;;;-11.57;67.20;96868.04;1794585;79;25711;-80
2021/12/26 02:10:11;;;;;;;96.37;38.95;;;;;;;-11.61;67.19;96873.07;1794774;79;25284;-80
2021/12/26 02:12:38;;;;;;;90.07;35.70;;;;;;;-11.63;67.14;96873.63;1794642;79;25752;-80
2021/12/26 02:15:06;;;;;;;95.57;36.40;;;;;;;-11.63;67.25;96871.02;1794743;79;25798;-81
2021/12/26 02:17:33;;;;;;;95.35;36.85;;;;;;;-11.63;67.25;96876.22;1794503;79;27435;-81
2021/12/26 02:23:16;;;;;;;87.27;34.05;;;;;;;-11.70;67.20;96868.37;1794639;79;25733;-81
2021/12/26 02:28:12;;;;;;;82.27;31.62;;;;;;;-11.81;67.12;96869.49;1761917;79;25768;-81
2021/12/26 02:30:39;;;;;;;88.60;32.85;;;;;;;-11.86;67.01;96874.14;1794679;79;27652;-81
2021/12/26 02:33:10;;;;;;;79.22;32.60;;;;;;;-11.92;66.92;96874.48;1791709;79;25703;-81
2021/12/26 02:35:35;;;;;;;77.32;31.25;;;;;;;-12.00;66.99;96869.72;1792895;79;25765;-81
2021/12/26 02:38:02;;;;;;;88.15;32.85;;;;;;;-12.03;66.95;96884.20;1793707;79;26372;-81
2021/12/26 02:40:29;;;;;;;83.92;31.57;;;;;;;-12.09;66.91;96884.09;1791089;79;25801;-82
2021/12/26 02:42:55;;;;;;;82.45;32.38;;;;;;;-12.13;66.84;96885.64;1790165;79;28297;-81
2021/12/26 02:45:22;;;;;;;77.78;30.95;;;;;;;-12.17;66.97;96886.27;1790063;79;25781;-81
2021/12/26 02:47:50;;;;;;;82.22;30.20;;;;;;;-12.19;67.01;96885.50;1787892;79;25798;-82
2021/12/26 02:50:24;;;;;;;84.13;31.60;;;;;;;-12.18;67.07;96887.64;1766998;79;25919;-81
2021/12/26 02:52:52;;;;;;;76.15;32.28;;;;;;;-12.19;67.13;96880.30;1793185;79;25742;-81
2021/12/26 02:55:21;;;;;;;74.58;31.48;;;;;;;-12.20;67.04;96882.56;1794433;79;27471;-81
2021/12/26 02:57:51;;;;;;;73.62;28.30;;;;;;;-12.22;67.00;96881.80;1790001;79;25766;-81
2021/12/26 03:00:22;;;;;;;76.50;28.80;;;;;;;-12.26;66.97;96881.58;1785901;79;25737;-81
2021/12/26 03:02:53;;;;;;;70.77;28.30;;;;;;;-12.28;66.89;96880.83;1792514;79;25677;-81
2021/12/26 03:05:21;;;;;;;73.12;31.42;;;;;;;-12.31;66.92;96878.38;1772443;78;26068;-81
2021/12/26 03:07:48;;;;;;;77.12;30.72;;;;;;;-12.32;66.96;96878.50;1794457;79;26919;-81
2021/12/26 03:10:22;;;;;;;85.42;33.08;;;;;;;-12.35;66.92;96876.90;1794319;79;25710;-81
2021/12/26 03:12:46;;;;;;;;;;;;;;;-12.38;66.90;96878.36;1796822;79;25853;-82
2021/12/26 03:15:12;;;;;;;64.50;26.85;;;;;;;-12.43;66.92;96877.30;1794384;79;26344;-82
2021/12/26 03:17:39;;;;;;;62.78;24.47;;;;;;;-12.49;66.93;96876.81;1794606;79;25701;-81
2021/12/26 03:20:16;;;;;;;58.85;23.35;;;;;;;-12.49;66.99;96882.02;1800255;79;28180;-82
2021/12/26 03:22:44;;;;;;;55.60;23.25;;;;;;;-12.54;66.95;96882.25;1799992;79;26325;-82
2021/12/26 03:25:16;;;;;;;61.65;23.05;;;;;;;-12.57;66.88;96886.80;1800075;79;25260;-81
2021/12/26 03:27:42;;;;;;;58.87;22.00;;;;;;;-12.56;67.05;96883.28;1774738;79;25687;-81
2021/12/26 03:30:13;;;;;;;59.90;22.02;;;;;;;-12.54;67.12;96884.01;1800183;79;25705;-82
2021/12/26 03:32:41;;;;;;;58.90;22.87;;;;;;;-12.55;67.07;96887.53;1800088;79;27412;-81
2021/12/26 03:35:09;;;;;;;59.73;24.92;;;;;;;-12.59;67.08;96886.88;1799663;79;25774;-81
2021/12/26 03:37:37;;;;;;;64.97;24.50;;;;;;;-12.58;67.14;96890.32;1799919;79;26542;-82
2021/12/26 03:40:05;;;;;;;62.30;24.82;;;;;;;-12.55;67.11;96892.73;1800022;79;26260;-82
2021/12/26 03:42:32;;;;;;;83.85;31.40;;;;;;;-12.59;67.13;96895.98;1800150;79;25670;-82
2021/12/26 03:45:00;;;;;;;79.92;30.48;;;;;;;-12.60;67.07;96894.76;1795604;79;27410;-82
2021/12/26 03:47:29;;;;;;;72.80;28.40;;;;;;;-12.63;67.09;96898.81;1797388;79;25780;-81
2021/12/26 03:49:56;;;;;;;69.32;28.70;;;;;;;-12.64;67.22;96904.94;1799138;79;25776;-82
2021/12/26 03:52:23;;;;;;;63.40;25.77;;;;;;;-12.68;67.11;96902.14;1799927;79;25779;-82
2021/12/26 03:54:50;;;;;;;57.58;24.20;;;;;;;-12.71;67.04;96901.00;1800117;79;25769;-81
2021/12/26 03:57:17;;;;;;;61.70;24.45;;;;;;;-12.76;67.05;96900.77;1755345;79;27396;-82
2021/12/26 03:59:44;;;;;;;60.17;23.42;;;;;;;-12.78;67.10;96902.61;1746368;79;25921;-81
2021/12/26 04:02:12;;;;;;;59.65;24.40;;;;;;;-12.79;67.04;96903.53;1740427;82;25779;-81
2021/12/26 04:04:39;;;;;;;64.92;26.20;;;;;;;-12.79;67.06;96911.78;1742788;81;25856;-82
2021/12/26 04:07:06;;;;;;;63.23;24.67;;;;;;;-12.78;67.06;96914.30;1738085;81;25751;-82
2021/12/26 04:09:32;;;;;;;77.85;28.75;;;;;;;-12.72;67.19;96917.05;1738136;81;27747;-81
2021/12/26 04:11:59;;;;;;;113.90;44.90;;;;;;;-12.65;67.18;96920.15;1737941;81;26418;-81
2021/12/26 04:14:26;;;;;;;173.87;66.75;;;;;;;-12.60;67.09;96927.26;1738116;81;25683;-81
2021/12/26 04:16:52;;;;;;;205.70;76.60;;;;;;;-12.61;66.99;96923.81;1738185;81;26443;-81
2021/12/26 04:19:19;;;;;;;243.52;90.65;;;;;;;-12.64;66.88;96921.83;1737934;81;25652;-81
2021/12/26 04:21:45;;;;;;;232.92;87.20;;;;;;;-12.64;66.93;96930.93;1738192;82;28368;-82
2021/12/26 04:24:13;;;;;;;223.95;83.12;;;;;;;-12.62;66.86;96927.80;1738024;81;25771;-81
2021/12/26 04:26:39;;;;;;;172.90;67.62;;;;;;;-12.59;66.90;96931.08;1738100;82;25694;-82
2021/12/26 04:29:08;;;;;;;139.03;57.25;;;;;;;-12.53;67.01;96931.19;1738041;81;25411;-82
2021/12/26 04:31:35;;;;;;;111.95;47.95;;;;;;;-12.41;67.15;96933.13;1738158;82;25736;-81
2021/12/26 04:34:03;;;;;;;108.97;45.75;;;;;;;-12.30;67.17;96930.78;1738105;81;28157;-81
2021/12/26 04:36:30;;;;;;;104.63;39.48;;;;;;;-12.26;66.89;96929.70;1738028;82;25948;-82
2021/12/26 04:38:56;;;;;;;90.17;38.50;;;;;;;-12.26;66.79;96936.20;1737843;81;25843;-81
2021/12/26 04:41:23;;;;;;;76.62;31.95;;;;;;;-12.30;66.64;96937.29;1737867;81;25787;-82
2021/12/26 04:43:50;;;;;;;80.45;31.65;;;;;;;-12.34;66.66;96937.56;1738114;81;25832;-81
2021/12/26 04:46:17;;;;;;;76.85;29.95;;;;;;;-12.35;66.65;96938.48;1738120;81;27539;-81
2021/12/26 04:48:44;;;;;;;67.47;29.95;;;;;;;-12.35;66.53;96940.62;1737921;81;25876;-81
2021/12/26 04:51:13;;;;;;;63.78;27.90;;;;;;;-12.42;66.48;96936.66;1738084;81;25748;-82
2021/12/26 04:53:40;;;;;;;64.17;27.27;;;;;;;-12.40;66.46;96943.91;1738110;82;25788;-82
2021/12/26 04:56:08;;;;;;;67.25;27.45;;;;;;;-12.43;66.37;96947.97;1738007;81;25718;-81
2021/12/26 04:58:35;;;;;;;60.60;27.80;;;;;;;-12.45;66.41;96945.48;1737692;81;27620;-81
2021/12/26 05:01:04;;;;;;;64.62;26.95;;;;;;;-12.48;66.36;96946.10;1713622;81;25904;-81
2021/12/26 05:03:31;;;;;;;57.75;24.43;;;;;;;-12.43;66.39;96949.27;1708566;82;25739;-81
2021/12/26 05:05:58;;;;;;;47.00;21.20;;;;;;;-12.44;66.39;96956.27;1708536;82;26641;-81
2021/12/26 05:08:24;;;;;;;47.60;19.48;;;;;;;-12.46;66.39;96949.47;1708586;82;25944;-81
2021/12/26 05:10:51;;;;;;;48.30;18.70;;;;;;;-12.49;66.31;96948.32;1734503;82;27542;-81
2021/12/26 05:13:18;;;;;;;39.50;17.77;;;;;;;-12.52;66.29;96951.08;1738085;81;25745;-82
2021/12/26 05:15:45;;;;;;;42.35;17.87;;;;;;;-12.53;66.33;96951.99;1738087;81;25734;-81
2021/12/26 05:18:11;;;;;;;46.65;19.32;;;;;;;-12.53;66.33;96948.94;1738041;81;25886;-82
2021/12/26 05:20:38;;;;;;;46.33;18.25;;;;;;;-12.47;66.41;96949.92;1732779;81;25305;-82
2021/12/26 05:23:04;;;;;;;45.60;17.95;;;;;;;-12.43;66.30;96951.87;1732678;81;27617;-81
2021/12/26 05:25:31;;;;;;;45.28;19.48;;;;;;;-12.45;66.23;96949.84;1732617;81;25751;-81
2021/12/26 05:27:58;;;;;;;52.85;20.60;;;;;;;-12.46;66.30;96950.77;1741395;82;25244;-81
2021/12/26 05:30:27;;;;;;;47.33;19.92;;;;;;;-12.49;66.13;96945.26;1741123;80;25729;-81
2021/12/26 05:32:53;;;;;;;57.67;22.58;;;;;;;-12.52;66.12;96944.58;1741490;81;25785;-82
2021/12/26 05:35:20;;;;;;;69.35;27.67;;;;;;;-12.55;66.16;96949.93;1741302;80;27423;-81
2021/12/26 05:37:47;;;;;;;81.35;30.37;;;;;;;-12.52;66.28;96947.17;1741275;82;25757;-81
2021/12/26 05:40:15;;;;;;;89.75;34.80;;;;;;;-12.49;66.23;96954.82;1740996;81;25732;-81
2021/12/26 05:42:44;;;;;;;90.12;36.58;;;;;;;-12.51;66.12;96951.45;1741485;81;26019;-82
2021/12/26 05:45:12;;;;;;;109.07;41.20;;;;;;;-12.54;66.21;96950.31;1741360;81;25270;-81
2021/12/26 05:47:39;;;;;;;109.70;44.85;;;;;;;-12.49;66.20;96955.66;1741360;80;27526;-82
2021/12/26 05:50:09;;;;;;;115.50;44.08;;;;;;;-12.54;66.03;96959.41;1741311;81;25687;-81
2021/12/26 05:52:36;;;;;;;107.60;43.68;;;;;;;-12.61;65.98;96952.87;1741386;81;25765;-81
2021/12/26 05:55:05;;;;;;;101.60;41.42;;;;;;;-12.69;65.84;96958.48;1741390;82;25826;-81
2021/12/26 05:57:31;;;;;;;97.60;37.00;;;;;;;-12.79;65.80;96960.70;1741486;81;25730;-82
2021/12/26 05:59:58;;;;;;;102.22;38.65;;;;;;;-12.84;65.81;96960.13;1741338;80;27530;-81
2021/12/26 06:02:24;;;;;;;98.27;36.05;;;;;;;-12.85;65.93;96963.64;1741292;81;25723;-82
2021/12/26 06:04:51;;;;;;;107.27;39.78;;;;;;;-12.84;65.84;96960.13;1741226;80;25762;-81
2021/12/26 06:07:18;;;;;;;117.77;41.53;;;;;;;-12.86;65.81;96956.77;1741341;81;26675;-82
2021/12/26 06:09:44;;;;;;;127.95;43.45;;;;;;;-12.85;65.92;96961.04;1741438;81;26018;-81
2021/12/26 06:12:11;;;;;;;133.12;45.95;;;;;;;-12.85;65.98;96966.23;1741329;82;27468;-82
2021/12/26 06:14:38;;;;;;;143.80;49.23;;;;;;;-12.79;65.98;96958.11;1741278;80;25750;-81
2021/12/26 06:17:04;;;;;;;159.52;53.80;;;;;;;-12.76;65.99;96962.31;1741370;81;25742;-82
2021/12/26 06:19:31;;;;;;;162.65;52.25;;;;;;;-12.68;66.14;96963.23;1741094;81;25867;-81
2021/12/26 06:21:58;;;;;;;155.63;50.75;;;;;;;-12.68;65.95;96964.53;1741359;80;25744;-81
2021/12/26 06:24:25;;;;;;;151.75;48.00;;;;;;;-12.70;65.91;96968.96;1741334;81;28398;-81
2021/12/26 06:26:51;;;;;;;132.85;44.65;;;;;;;-12.73;65.84;96971.72;1741270;81;26349;-82
2021/12/26 06:29:18;;;;;;;124.05;40.80;;;;;;;-12.77;65.76;96970.56;1741318;81;25793;-81
2021/12/26 06:31:44;;;;;;;121.72;41.33;;;;;;;-12.78;65.74;96974.54;1741238;82;26272;-81
2021/12/26 06:34:11;;;;;;;93.62;35.13;;;;;;;-12.79;65.77;96973.70;1741374;81;25279;-82
2021/12/26 06:36:38;;;;;;;94.42;32.45;;;;;;;-12.78;65.81;96973.24;1741428;81;27476;-81
2021/12/26 06:39:04;;;;;;;90.92;33.65;;;;;;;-12.73;65.88;96976.91;1741150;81;25940;-81
2021/12/26 06:41:31;;;;;;;98.37;35.73;;;;;;;-12.72;65.89;96975.53;1741086;81;25756;-81
2021/12/26 06:43:58;;;;;;;110.95;36.90;;;;;;;-12.72;65.72;96978.59;1741296;81;25928;-82
2021/12/26 06:46:24;;;;;;;108.17;39.98;;;;;;;-12.75;65.79;96972.63;1741435;81;25715;-81
2021/12/26 06:48:51;;;;;;;137.03;45.43;;;;;;;-12.75;65.72;96973.93;1741371;81;26969;-82
2021/12/26 06:51:20;;;;;;;112.03;40.85;;;;;;;-12.77;65.66;96978.82;1741199;81;25658;-82
2021/12/26 06:53:46;;;;;;;106.32;41.73;;;;;;;-12.83;65.60;96974.80;1741297;82;25712;-82
2021/12/26 06:56:13;;;;;;;107.17;42.62;;;;;;;-12.87;65.71;96978.47;1741292;81;25729;-81
2021/12/26 06:58:39;;;;;;;114.67;45.60;;;;;;;-12.93;65.71;96981.39;1741342;80;25761;-82
2021/12/26 07:01:06;;;;;;;136.28;52.27;;;;;;;-12.95;65.69;96982.39;1741108;81;28032;-82
2021/12/26 07:03:33;;;;;;;122.85;50.35;;;;;;;-12.98;65.75;96988.58;1741177;80;25722;-82
2021/12/26 07:05:59;;;;;;;123.05;51.02;;;;;;;-12.95;65.81;96989.72;1741297;82;26270;-82
2021/12/26 07:08:26;;;;;;;151.53;59.27;;;;;;;-12.96;65.70;96997.13;1741297;80;26486;-81
2021/12/26 07:10:52;;;;;;;141.55;58.38;;;;;;;-13.01;65.73;97000.88;1741228;81;25844;-82
2021/12/26 07:13:19;;;;;;;143.45;61.10;;;;;;;-13.05;65.75;97004.11;1741234;81;27502;-82
2021/12/26 07:15:46;;;;;;;134.63;58.48;;;;;;;-13.16;65.76;96976.08;1741142;80;25746;-82
2021/12/26 07:18:13;;;;;;;125.07;52.13;;;;;;;-12.98;65.81;97004.63;1741180;81;26251;-82
2021/12/26 07:20:40;;;;;;;129.45;54.13;;;;;;;-12.99;65.85;97006.37;1749624;80;25690;-82
2021/12/26 07:23:07;;;;;;;139.80;56.60;;;;;;;-12.94;65.89;97012.66;1754538;80;26402;-82
2021/12/26 07:25:33;;;;;;;130.57;56.80;;;;;;;-12.93;65.87;97011.28;1754922;80;27556;-82
2021/12/26 07:28:00;;;;;;;137.47;60.03;;;;;;;-12.93;65.85;97015.17;1754809;80;25591;-81
2021/12/26 07:30:28;;;;;;;126.87;60.63;;;;;;;-12.92;65.82;97015.53;1754901;80;25753;-81
2021/12/26 07:32:54;;;;;;;130.35;62.60;;;;;;;-12.94;65.87;97016.09;1754804;80;26472;-82
2021/12/26 07:35:21;;;;;;;135.35;62.88;;;;;;;-12.91;65.84;97015.07;1754840;80;25646;-82
2021/12/26 07:37:48;;;;;;;134.10;63.48;;;;;;;-12.88;65.92;97018.36;1754925;80;27337;-82
2021/12/26 07:40:14;;;;;;;146.05;65.22;;;;;;;-12.83;66.03;97011.64;1754392;80;25888;-82
2021/12/26 07:42:41;;;;;;;151.53;68.07;;;;;;;-12.76;65.99;97019.49;1740493;81;25714;-81
2021/12/26 07:45:09;;;;;;;176.40;78.42;;;;;;;-12.75;65.90;97019.42;1754847;81;25812;-82
2021/12/26 07:47:35;;;;;;;179.10;78.37;;;;;;;-12.68;66.03;97023.86;1748415;81;25738;-82
2021/12/26 07:50:04;;;;;;;213.30;91.57;;;;;;;-12.62;66.02;97027.88;1748956;81;27403;-82
2021/12/26 07:52:36;;;;;;;253.58;106.65;;;;;;;-12.56;66.06;97031.48;1748827;80;25674;-82
2021/12/26 07:55:01;;;;;;;256.15;110.15;;;;;;;-12.48;66.12;97033.22;1748867;81;25812;-82
2021/12/26 07:57:27;;;;;;;253.30;112.60;;;;;;;-12.43;66.06;97028.59;1733746;80;26280;-83
2021/12/26 07:59:54;;;;;;;214.27;101.85;;;;;;;-12.40;66.11;97032.34;1735063;82;25817;-82
2021/12/26 08:02:21;;;;;;;210.60;103.58;;;;;;;-12.37;66.06;97033.95;1719026;82;28309;-82
2021/12/26 08:04:48;;;;;;;204.07;98.45;;;;;;;-12.33;66.11;97032.41;1719053;82;25523;-82
2021/12/26 08:07:15;;;;;;;187.40;82.02;;;;;;;-12.30;66.21;97032.23;1719027;82;26255;-82
2021/12/26 08:09:42;;;;;;;177.72;78.97;;;;;;;-12.24;66.30;97028.48;1721987;82;25807;-82
2021/12/26 08:12:09;;;;;;;190.15;80.62;;;;;;;-12.16;66.43;97028.44;1748555;80;25684;-82
2021/12/26 08:14:36;;;;;;;194.70;82.62;;;;;;;-12.07;66.43;97032.30;1748536;80;28207;-82
2021/12/26 08:17:04;;;;;;;202.68;85.55;;;;;;;-12.05;66.42;97035.20;1748433;82;25740;-82
2021/12/26 08:19:31;;;;;;;207.83;85.03;;;;;;;-12.02;66.31;97035.51;1738386;82;25786;-82
2021/12/26 08:21:57;;;;;;;204.78;86.32;;;;;;;-11.99;66.36;97031.91;1709288;82;26711;-82
2021/12/26 08:24:26;;;;;;;207.77;88.97;;;;;;;-11.92;66.56;97039.75;1716983;82;25735;-82
2021/12/26 08:26:54;;;;;;;205.67;88.62;;;;;;;-11.82;66.54;97043.06;1726489;82;28566;-82
2021/12/26 08:29:23;;;;;;;203.67;82.82;;;;;;;-11.72;66.62;97041.63;1733992;82;25926;-82
2021/12/26 08:31:55;;;;;;;197.32;83.25;;;;;;;-11.59;66.59;97037.86;1737683;82;25797;-82
2021/12/26 08:34:22;;;;;;;227.85;95.70;;;;;;;-11.54;66.56;97038.45;1737698;81;25767;-82
2021/12/26 08:37:03;;;;;;;225.85;97.50;;;;;;;-11.47;66.54;97039.78;1737827;81;25738;-82
2021/12/26 08:39:40;;;;;;;256.40;106.25;;;;;;;-11.43;66.51;97034.78;1737995;81;28326;-82
2021/12/26 08:42:10;;;;;;;256.75;109.17;;;;;;;-11.38;66.54;97035.37;1737958;81;25697;-81
2021/12/26 08:44:41;;;;;;;277.62;120.45;;;;;;;-11.30;66.63;97028.42;1738073;81;25817;-82
2021/12/26 08:47:09;;;;;;;274.45;119.75;;;;;;;-11.20;66.64;97032.17;1737795;81;25774;-82
2021/12/26 08:49:36;;;;;;;254.90;111.83;;;;;;;-11.10;66.65;97030.72;1738063;81;25795;-82
2021/12/26 08:52:05;;;;;;;239.70;106.58;;;;;;;-10.98;66.60;97031.77;1738036;82;27524;-82
2021/12/26 08:54:33;;;;;;;270.90;115.55;;;;;;;-10.88;66.64;97027.73;1738063;82;25756;-82
2021/12/26 08:57:02;;;;;;;279.65;123.62;;;;;;;-10.69;66.67;97031.38;1738150;81;25809;-83
2021/12/26 08:59:30;;;;;;;290.43;122.95;;;;;;;-10.53;66.63;97024.34;1737576;82;25742;-83
2021/12/26 09:01:59;;;;;;;268.73;118.45;;;;;;;-10.38;66.61;97023.89;1733546;81;26336;-83
2021/12/26 09:04:26;;;;;;;250.43;110.37;;;;;;;-10.26;66.52;97026.56;1729507;81;27571;-83
2021/12/26 09:06:53;;;;;;;255.52;107.52;;;;;;;-10.10;66.48;97024.30;1732498;81;25847;-84
2021/12/26 09:09:19;;;;;;;240.57;100.62;;;;;;;-10.01;66.41;97024.56;1717943;82;25282;-83
2021/12/26 09:11:46;;;;;;;189.72;80.62;;;;;;;-9.92;66.40;97025.32;1708392;82;25862;-82
2021/12/26 09:14:13;;;;;;;184.10;82.67;;;;;;;-9.80;66.34;97023.72;1722066;81;25659;-83
2021/12/26 09:16:39;;;;;;;178.07;81.45;;;;;;;-9.68;66.36;97019.48;1756100;81;28273;-83
2021/12/26 09:19:08;;;;;;;184.00;85.42;;;;;;;-9.54;66.33;97016.34;1708382;82;25703;-82
2021/12/26 09:21:35;;;;;;;194.05;87.25;;;;;;;-9.40;66.23;97014.63;1714650;82;25849;-83
2021/12/26 09:24:04;;;;;;;213.00;94.52;;;;;;;-9.23;66.35;97012.61;1718838;82;26656;-83
2021/12/26 09:26:31;;;;;;;200.53;88.78;;;;;;;-8.95;66.50;97002.97;1738787;80;25845;-84
2021/12/26 09:28:59;;;;;;;209.03;93.03;;;;;;;-8.73;66.21;96997.97;1723238;82;27530;-81
2021/12/26 09:31:25;;;;;;;219.15;93.45;;;;;;;-8.68;65.94;96988.02;1732230;80;25739;-83
2021/12/26 09:33:52;;;;;;;205.85;90.60;;;;;;;-8.63;65.68;96988.55;1719121;82;25361;-84
2021/12/26 09:36:19;;;;;;;198.15;87.05;;;;;;;-8.58;65.69;96980.41;1743191;82;25895;-83
2021/12/26 09:38:46;;;;;;;195.38;80.92;;;;;;;-8.54;65.57;96976.62;1748110;81;25735;-82
2021/12/26 09:41:13;;;;;;;202.90;84.75;;;;;;;-8.49;65.56;96975.37;1748913;80;27347;-83
2021/12/26 09:43:40;;;;;;;188.30;81.32;;;;;;;-8.44;65.38;96976.34;1748030;81;25303;-83
2021/12/26 09:46:06;;;;;;;189.70;81.15;;;;;;;-8.23;65.76;96976.64;1745286;80;25650;-83
2021/12/26 09:48:33;;;;;;;178.50;73.42;;;;;;;-7.92;65.77;96974.84;1717015;80;25835;-83
2021/12/26 09:50:59;;;;;;;178.70;75.75;;;;;;;-7.73;65.66;96966.53;1712721;83;25437;-83
2021/12/26 09:53:26;;;;;;;160.82;67.80;;;;;;;-7.54;65.72;96966.03;1712794;83;27407;-83
2021/12/26 09:55:53;;;;;;;174.18;73.17;;;;;;;-7.31;65.53;96962.56;1727932;80;26290;-83
2021/12/26 09:58:21;;;;;;;180.87;77.80;;;;;;;-7.15;65.45;96963.12;1721854;80;36756;-83
2021/12/26 10:00:48;;;;;;;191.77;78.12;;;;;;;-6.79;65.63;96960.02;1727588;80;25797;-84
2021/12/26 10:03:22;;;;;;;206.07;81.75;;;;;;;-6.48;65.42;96961.97;1748621;80;25817;-84
2021/12/26 10:06:18;;;;;;;172.70;71.25;;;;;;;-6.26;65.39;96958.52;1743895;80;27477;-82
2021/12/26 10:09:05;;;;;;;171.93;69.72;;;;;;;-5.93;65.00;96956.39;1748099;81;25745;-84
2021/12/26 10:11:38;;;;;;;174.20;71.37;;;;;;;-5.77;64.52;96954.16;1748629;80;25801;-84
2021/12/26 10:14:08;;;;;;;189.97;76.33;;;;;;;-5.84;63.93;96951.68;1747274;80;26255;-84
2021/12/26 10:16:43;;;;;;;176.50;74.12;;;;;;;-5.88;63.78;96945.02;1744695;80;25745;-84
2021/12/26 10:19:10;;;;;;;164.75;70.72;;;;;;;-5.93;63.65;96940.62;1747637;80;28318;-85
2021/12/26 10:21:52;;;;;;;163.65;67.70;;;;;;;-5.87;64.04;96945.34;1733129;81;25742;-84
2021/12/26 10:24:23;;;;;;;153.40;66.57;;;;;;;-5.71;63.96;96938.40;1737405;81;25805;-84
2021/12/26 10:27:00;;;;;;;144.93;58.65;;;;;;;-5.70;63.37;96942.70;1736660;81;26409;-83
2021/12/26 10:29:38;;;;;;;158.35;63.50;;;;;;;-5.74;63.67;96938.16;1733903;81;25713;-83
2021/12/26 10:32:14;;;;;;;148.93;61.00;;;;;;;-5.62;63.75;96935.86;1712328;82;28112;-83
2021/12/26 10:34:51;;;;;;;141.30;59.38;;;;;;;-5.45;63.60;96947.19;1730137;81;25820;-84
2021/12/26 10:37:23;;;;;;;168.95;69.00;;;;;;;-5.17;63.53;96939.66;1737995;82;25729;-84
2021/12/26 10:39:54;;;;;;;147.37;65.37;;;;;;;-4.95;63.38;96936.92;1738348;81;25780;-85
2021/12/26 10:42:25;;;;;;;175.03;73.67;;;;;;;-4.74;63.13;96936.47;1736987;81;25952;-84
2021/12/26 10:44:57;;;;;;;157.67;70.85;;;;;;;-4.62;62.74;96931.97;1737211;81;28103;-85
2021/12/26 10:47:28;;;;;;;151.85;68.20;;;;;;;-4.49;62.82;96931.77;1723893;81;25754;-85
2021/12/26 10:50:14;;;;;;;143.65;63.35;;;;;;;-4.41;62.66;96931.46;1714635;82;26337;-86
2021/12/26 10:53:02;;;;;;;137.30;58.98;;;;;;;-4.37;62.00;96936.00;1733718;81;26669;-85
2021/12/26 10:55:51;;;;;;;130.90;59.45;;;;;;;-4.50;61.76;96931.41;1737320;81;25871;-84
2021/12/26 10:58:19;;;;;;;138.60;61.70;;;;;;;-4.46;62.14;96934.12;1737290;81;27398;-84
2021/12/26 11:00:53;;;;;;;121.30;54.05;;;;;;;-4.23;62.31;96933.02;1737511;81;26546;-83
2021/12/26 11:03:24;;;;;;;125.62;51.83;;;;;;;-4.03;62.18;96932.13;1737541;81;25838;-83
2021/12/26 11:05:58;;;;;;;109.40;49.80;;;;;;;-3.82;61.89;96935.17;1737689;81;26472;-84
2021/12/26 11:08:35;;;;;;;112.12;47.78;;;;;;;-3.65;61.67;96932.75;1736357;81;25758;-84
2021/12/26 11:11:22;;;;;;;137.45;60.75;;;;;;;-3.46;61.45;96935.89;1737219;81;28383;-84
2021/12/26 11:13:47;;;;;;;132.15;59.65;;;;;;;-3.24;61.10;96927.38;1737110;81;25826;-84
2021/12/26 11:16:15;;;;;;;113.62;52.83;;;;;;;-3.09;61.43;96924.68;1736474;81;25785;-83